sensor_id;sensor_type;location;lat;lon;timestamp;temperature;humidity
47576;DHT22;33304;52.456;13.328;2023-09-30T00:02:09;17.50;17.60
47576;DHT22;33304;52.456;13.328;2023-09-30T00:04:37;17.40;17.50
47576;DHT22;33304;52.456;13.328;2023-09-30T00:07:05;17.40;17.50
47576;DHT22;33304;52.456;13.328;2023-09-30T00:09:32;17.40;17.50
47576;DHT22;33304;52.456;13.328;2023-09-30T00:11:59;17.30;17.50
47576;DHT22;33304;52.456;13.328;2023-09-30T00:14:26;17.30;17.50
47576;DHT22;33304;52.456;13.328;2023-09-30T00:16:54;17.30;17.50
47576;DHT22;33304;52.456;13.328;2023-09-30T00:19:21;17.10;18.50
47576;DHT22;33304;52.456;13.328;2023-09-30T00:21:49;17.10;18.80
47576;DHT22;33304;52.456;13.328;2023-09-30T00:24:17;17.10;19.20
47576;DHT22;33304;52.456;13.328;2023-09-30T00:26:44;17.00;19.50
47576;DHT22;33304;52.456;13.328;2023-09-30T00:29:12;16.90;19.80
47576;DHT22;33304;52.456;13.328;2023-09-30T00:31:40;16.80;19.30
47576;DHT22;33304;52.456;13.328;2023-09-30T00:34:07;16.60;18.90
47576;DHT22;33304;52.456;13.328;2023-09-30T00:36:34;16.60;19.20
47576;DHT22;33304;52.456;13.328;2023-09-30T00:39:01;16.60;19.10
47576;DHT22;33304;52.456;13.328;2023-09-30T00:41:31;16.40;18.80
47576;DHT22;33304;52.456;13.328;2023-09-30T00:43:58;16.40;19.10
47576;DHT22;33304;52.456;13.328;2023-09-30T00:46:27;16.50;19.30
47576;DHT22;33304;52.456;13.328;2023-09-30T00:48:57;16.30;18.90
47576;DHT22;33304;52.456;13.328;2023-09-30T00:51:24;16.20;19.40
47576;DHT22;33304;52.456;13.328;2023-09-30T00:53:53;16.10;19.40
47576;DHT22;33304;52.456;13.328;2023-09-30T00:56:24;16.10;19.10
47576;DHT22;33304;52.456;13.328;2023-09-30T00:58:54;16.00;19.10
47576;DHT22;33304;52.456;13.328;2023-09-30T01:01:21;16.00;18.90
47576;DHT22;33304;52.456;13.328;2023-09-30T01:03:48;15.90;18.80
47576;DHT22;33304;52.456;13.328;2023-09-30T01:06:15;15.90;18.80
47576;DHT22;33304;52.456;13.328;2023-09-30T01:08:43;15.70;18.40
47576;DHT22;33304;52.456;13.328;2023-09-30T01:11:10;15.80;19.80
47576;DHT22;33304;52.456;13.328;2023-09-30T01:13:38;15.70;19.90
47576;DHT22;33304;52.456;13.328;2023-09-30T01:16:07;15.70;19.10
47576;DHT22;33304;52.456;13.328;2023-09-30T01:18:36;15.60;19.30
47576;DHT22;33304;52.456;13.328;2023-09-30T01:21:04;15.60;19.50
47576;DHT22;33304;52.456;13.328;2023-09-30T01:23:34;15.60;20.10
47576;DHT22;33304;52.456;13.328;2023-09-30T01:26:02;15.60;18.70
47576;DHT22;33304;52.456;13.328;2023-09-30T01:28:31;15.50;19.90
47576;DHT22;33304;52.456;13.328;2023-09-30T01:30:58;15.40;20.10
47576;DHT22;33304;52.456;13.328;2023-09-30T01:33:25;15.30;20.50
47576;DHT22;33304;52.456;13.328;2023-09-30T01:35:53;15.30;19.40
47576;DHT22;33304;52.456;13.328;2023-09-30T01:38:20;15.30;20.30
47576;DHT22;33304;52.456;13.328;2023-09-30T01:40:49;15.30;21.10
47576;DHT22;33304;52.456;13.328;2023-09-30T01:43:17;15.20;21.10
47576;DHT22;33304;52.456;13.328;2023-09-30T01:45:45;15.20;21.90
47576;DHT22;33304;52.456;13.328;2023-09-30T01:48:12;15.10;21.90
47576;DHT22;33304;52.456;13.328;2023-09-30T01:50:39;15.10;21.60
47576;DHT22;33304;52.456;13.328;2023-09-30T01:53:07;15.10;22.30
47576;DHT22;33304;52.456;13.328;2023-09-30T01:55:35;15.00;21.90
47576;DHT22;33304;52.456;13.328;2023-09-30T01:58:05;15.00;21.70
47576;DHT22;33304;52.456;13.328;2023-09-30T02:00:33;15.00;22.60
47576;DHT22;33304;52.456;13.328;2023-09-30T02:03:01;15.00;22.40
47576;DHT22;33304;52.456;13.328;2023-09-30T02:05:28;14.90;23.10
47576;DHT22;33304;52.456;13.328;2023-09-30T02:07:56;15.00;24.00
47576;DHT22;33304;52.456;13.328;2023-09-30T02:10:23;15.00;23.30
47576;DHT22;33304;52.456;13.328;2023-09-30T02:12:51;14.90;24.10
47576;DHT22;33304;52.456;13.328;2023-09-30T02:15:19;14.90;24.50
47576;DHT22;33304;52.456;13.328;2023-09-30T02:17:46;14.80;25.30
47576;DHT22;33304;52.456;13.328;2023-09-30T02:20:15;14.70;25.30
47576;DHT22;33304;52.456;13.328;2023-09-30T02:22:45;14.60;25.30
47576;DHT22;33304;52.456;13.328;2023-09-30T02:25:13;14.70;25.40
47576;DHT22;33304;52.456;13.328;2023-09-30T02:27:41;14.60;25.80
47576;DHT22;33304;52.456;13.328;2023-09-30T02:30:09;14.70;27.10
47576;DHT22;33304;52.456;13.328;2023-09-30T02:32:40;14.60;27.10
47576;DHT22;33304;52.456;13.328;2023-09-30T02:35:08;14.60;27.00
47576;DHT22;33304;52.456;13.328;2023-09-30T02:37:37;14.60;27.80
47576;DHT22;33304;52.456;13.328;2023-09-30T02:40:05;14.50;28.70
47576;DHT22;33304;52.456;13.328;2023-09-30T02:42:35;14.40;29.40
47576;DHT22;33304;52.456;13.328;2023-09-30T02:45:04;14.30;30.80
47576;DHT22;33304;52.456;13.328;2023-09-30T02:47:31;14.30;31.70
47576;DHT22;33304;52.456;13.328;2023-09-30T02:50:01;14.30;33.50
47576;DHT22;33304;52.456;13.328;2023-09-30T02:52:29;14.20;35.40
47576;DHT22;33304;52.456;13.328;2023-09-30T02:54:56;14.30;35.40
47576;DHT22;33304;52.456;13.328;2023-09-30T02:57:23;14.30;35.40
47576;DHT22;33304;52.456;13.328;2023-09-30T02:59:51;14.30;38.30
47576;DHT22;33304;52.456;13.328;2023-09-30T03:02:20;14.30;39.20
47576;DHT22;33304;52.456;13.328;2023-09-30T03:04:50;14.30;39.10
47576;DHT22;33304;52.456;13.328;2023-09-30T03:07:20;14.20;41.80
47576;DHT22;33304;52.456;13.328;2023-09-30T03:09:47;14.10;46.90
47576;DHT22;33304;52.456;13.328;2023-09-30T03:12:14;14.20;49.10
47576;DHT22;33304;52.456;13.328;2023-09-30T03:14:41;14.10;51.30
47576;DHT22;33304;52.456;13.328;2023-09-30T03:17:10;14.20;52.20
47576;DHT22;33304;52.456;13.328;2023-09-30T03:19:37;14.10;52.20
47576;DHT22;33304;52.456;13.328;2023-09-30T03:22:05;14.10;58.10
47576;DHT22;33304;52.456;13.328;2023-09-30T03:24:39;14.10;58.10
47576;DHT22;33304;52.456;13.328;2023-09-30T03:27:07;14.10;58.10
47576;DHT22;33304;52.456;13.328;2023-09-30T03:29:35;14.10;56.80
47576;DHT22;33304;52.456;13.328;2023-09-30T03:32:04;14.10;59.30
47576;DHT22;33304;52.456;13.328;2023-09-30T03:34:31;14.00;61.30
47576;DHT22;33304;52.456;13.328;2023-09-30T03:36:58;14.00;60.50
47576;DHT22;33304;52.456;13.328;2023-09-30T03:39:25;13.90;60.80
47576;DHT22;33304;52.456;13.328;2023-09-30T03:41:55;13.90;62.70
47576;DHT22;33304;52.456;13.328;2023-09-30T03:44:23;13.90;65.20
47576;DHT22;33304;52.456;13.328;2023-09-30T03:46:51;13.90;69.00
47576;DHT22;33304;52.456;13.328;2023-09-30T03:49:18;13.90;69.40
47576;DHT22;33304;52.456;13.328;2023-09-30T03:51:47;13.90;69.00
47576;DHT22;33304;52.456;13.328;2023-09-30T03:54:16;13.80;72.50
47576;DHT22;33304;52.456;13.328;2023-09-30T03:56:44;13.70;79.50
47576;DHT22;33304;52.456;13.328;2023-09-30T03:59:13;13.70;83.10
47576;DHT22;33304;52.456;13.328;2023-09-30T04:01:41;13.70;86.10
47576;DHT22;33304;52.456;13.328;2023-09-30T04:04:10;13.80;84.40
47576;DHT22;33304;52.456;13.328;2023-09-30T04:06:37;13.70;85.00
47576;DHT22;33304;52.456;13.328;2023-09-30T04:09:04;13.80;86.70
47576;DHT22;33304;52.456;13.328;2023-09-30T04:11:36;13.80;89.80
47576;DHT22;33304;52.456;13.328;2023-09-30T04:14:05;13.70;88.20
47576;DHT22;33304;52.456;13.328;2023-09-30T04:16:34;13.60;91.20
47576;DHT22;33304;52.456;13.328;2023-09-30T04:19:01;13.60;94.60
47576;DHT22;33304;52.456;13.328;2023-09-30T04:21:28;13.60;94.80
47576;DHT22;33304;52.456;13.328;2023-09-30T04:23:59;13.70;95.10
47576;DHT22;33304;52.456;13.328;2023-09-30T04:26:27;13.60;96.50
47576;DHT22;33304;52.456;13.328;2023-09-30T04:28:54;13.60;97.40
47576;DHT22;33304;52.456;13.328;2023-09-30T04:31:21;13.60;97.60
47576;DHT22;33304;52.456;13.328;2023-09-30T04:33:50;13.60;96.40
47576;DHT22;33304;52.456;13.328;2023-09-30T04:36:18;13.50;97.10
47576;DHT22;33304;52.456;13.328;2023-09-30T04:38:46;13.50;98.50
47576;DHT22;33304;52.456;13.328;2023-09-30T04:41:13;13.50;98.70
47576;DHT22;33304;52.456;13.328;2023-09-30T04:43:41;13.50;99.90
47576;DHT22;33304;52.456;13.328;2023-09-30T04:46:09;13.50;99.90
47576;DHT22;33304;52.456;13.328;2023-09-30T04:48:38;13.60;99.90
47576;DHT22;33304;52.456;13.328;2023-09-30T04:51:08;13.60;99.90
47576;DHT22;33304;52.456;13.328;2023-09-30T04:53:37;13.60;99.30
47576;DHT22;33304;52.456;13.328;2023-09-30T04:56:04;13.60;99.90
47576;DHT22;33304;52.456;13.328;2023-09-30T04:58:31;13.50;97.60
47576;DHT22;33304;52.456;13.328;2023-09-30T05:00:58;13.50;96.80
47576;DHT22;33304;52.456;13.328;2023-09-30T05:03:25;13.50;97.10
47576;DHT22;33304;52.456;13.328;2023-09-30T05:05:53;13.50;96.50
47576;DHT22;33304;52.456;13.328;2023-09-30T05:08:24;13.50;96.20
47576;DHT22;33304;52.456;13.328;2023-09-30T05:10:51;13.40;98.70
47576;DHT22;33304;52.456;13.328;2023-09-30T05:13:21;13.40;98.60
47576;DHT22;33304;52.456;13.328;2023-09-30T05:15:49;13.50;98.70
47576;DHT22;33304;52.456;13.328;2023-09-30T05:18:17;13.40;97.80
47576;DHT22;33304;52.456;13.328;2023-09-30T05:20:43;13.40;99.10
47576;DHT22;33304;52.456;13.328;2023-09-30T05:23:10;13.40;99.90
47576;DHT22;33304;52.456;13.328;2023-09-30T05:25:40;13.50;99.40
47576;DHT22;33304;52.456;13.328;2023-09-30T05:28:08;13.50;98.70
47576;DHT22;33304;52.456;13.328;2023-09-30T05:30:35;13.40;98.70
47576;DHT22;33304;52.456;13.328;2023-09-30T05:33:03;13.40;98.70
47576;DHT22;33304;52.456;13.328;2023-09-30T05:35:30;13.40;98.70
47576;DHT22;33304;52.456;13.328;2023-09-30T05:37:58;13.50;99.30
47576;DHT22;33304;52.456;13.328;2023-09-30T05:40:25;13.50;98.70
47576;DHT22;33304;52.456;13.328;2023-09-30T05:42:55;13.50;98.10
47576;DHT22;33304;52.456;13.328;2023-09-30T05:45:24;13.60;97.60
47576;DHT22;33304;52.456;13.328;2023-09-30T05:47:52;13.60;97.20
47576;DHT22;33304;52.456;13.328;2023-09-30T05:50:20;13.60;97.20
47576;DHT22;33304;52.456;13.328;2023-09-30T05:52:50;13.60;97.60
47576;DHT22;33304;52.456;13.328;2023-09-30T05:55:17;13.70;96.60
47576;DHT22;33304;52.456;13.328;2023-09-30T05:57:46;13.70;95.70
47576;DHT22;33304;52.456;13.328;2023-09-30T06:00:15;13.70;94.50
47576;DHT22;33304;52.456;13.328;2023-09-30T06:02:48;13.80;94.40
47576;DHT22;33304;52.456;13.328;2023-09-30T06:05:17;13.80;94.40
47576;DHT22;33304;52.456;13.328;2023-09-30T06:07:45;13.90;90.20
47576;DHT22;33304;52.456;13.328;2023-09-30T06:10:12;14.00;90.10
47576;DHT22;33304;52.456;13.328;2023-09-30T06:12:41;14.10;83.20
47576;DHT22;33304;52.456;13.328;2023-09-30T06:15:09;14.10;79.90
47576;DHT22;33304;52.456;13.328;2023-09-30T06:17:38;14.20;76.50
47576;DHT22;33304;52.456;13.328;2023-09-30T06:20:06;14.20;70.10
47576;DHT22;33304;52.456;13.328;2023-09-30T06:22:34;14.20;64.10
47576;DHT22;33304;52.456;13.328;2023-09-30T06:25:01;14.20;62.10
47576;DHT22;33304;52.456;13.328;2023-09-30T06:27:29;14.20;60.70
47576;DHT22;33304;52.456;13.328;2023-09-30T06:29:57;14.20;58.20
47576;DHT22;33304;52.456;13.328;2023-09-30T06:32:24;14.30;57.20
47576;DHT22;33304;52.456;13.328;2023-09-30T06:34:52;14.30;51.20
47576;DHT22;33304;52.456;13.328;2023-09-30T06:37:19;14.30;50.00
47576;DHT22;33304;52.456;13.328;2023-09-30T06:39:47;14.30;49.80
47576;DHT22;33304;52.456;13.328;2023-09-30T06:42:15;14.20;47.80
47576;DHT22;33304;52.456;13.328;2023-09-30T06:44:42;14.30;47.10
47576;DHT22;33304;52.456;13.328;2023-09-30T06:47:10;14.30;47.10
47576;DHT22;33304;52.456;13.328;2023-09-30T06:49:38;14.40;47.20
47576;DHT22;33304;52.456;13.328;2023-09-30T06:52:07;14.40;47.90
47576;DHT22;33304;52.456;13.328;2023-09-30T06:54:34;14.30;44.00
47576;DHT22;33304;52.456;13.328;2023-09-30T06:57:01;14.40;43.00
47576;DHT22;33304;52.456;13.328;2023-09-30T06:59:28;14.40;43.20
47576;DHT22;33304;52.456;13.328;2023-09-30T07:01:55;14.40;43.00
47576;DHT22;33304;52.456;13.328;2023-09-30T07:04:22;14.60;42.70
47576;DHT22;33304;52.456;13.328;2023-09-30T07:06:49;14.60;42.40
47576;DHT22;33304;52.456;13.328;2023-09-30T07:09:17;14.70;37.70
47576;DHT22;33304;52.456;13.328;2023-09-30T07:11:45;14.70;35.80
47576;DHT22;33304;52.456;13.328;2023-09-30T07:14:12;14.80;35.90
47576;DHT22;33304;52.456;13.328;2023-09-30T07:16:39;14.90;35.90
47576;DHT22;33304;52.456;13.328;2023-09-30T07:19:06;14.80;34.40
47576;DHT22;33304;52.456;13.328;2023-09-30T07:21:34;14.90;33.60
47576;DHT22;33304;52.456;13.328;2023-09-30T07:24:01;15.00;32.40
47576;DHT22;33304;52.456;13.328;2023-09-30T07:26:29;15.10;32.90
47576;DHT22;33304;52.456;13.328;2023-09-30T07:28:56;15.10;30.20
47576;DHT22;33304;52.456;13.328;2023-09-30T07:31:24;15.00;30.20
47576;DHT22;33304;52.456;13.328;2023-09-30T07:33:51;15.10;29.30
47576;DHT22;33304;52.456;13.328;2023-09-30T07:36:19;15.10;29.40
47576;DHT22;33304;52.456;13.328;2023-09-30T07:38:46;15.20;28.60
47576;DHT22;33304;52.456;13.328;2023-09-30T07:41:13;15.20;28.30
47576;DHT22;33304;52.456;13.328;2023-09-30T07:43:41;15.30;28.00
47576;DHT22;33304;52.456;13.328;2023-09-30T07:46:09;15.30;26.00
47576;DHT22;33304;52.456;13.328;2023-09-30T07:48:36;15.30;26.40
47576;DHT22;33304;52.456;13.328;2023-09-30T07:51:05;15.30;27.60
47576;DHT22;33304;52.456;13.328;2023-09-30T07:53:35;15.60;26.10
47576;DHT22;33304;52.456;13.328;2023-09-30T07:56:02;15.40;25.70
47576;DHT22;33304;52.456;13.328;2023-09-30T07:58:29;15.30;25.60
47576;DHT22;33304;52.456;13.328;2023-09-30T08:00:57;15.30;25.70
47576;DHT22;33304;52.456;13.328;2023-09-30T08:03:24;15.20;25.70
47576;DHT22;33304;52.456;13.328;2023-09-30T08:05:51;15.30;26.10
47576;DHT22;33304;52.456;13.328;2023-09-30T08:08:19;15.30;25.70
47576;DHT22;33304;52.456;13.328;2023-09-30T08:10:46;15.40;26.20
47576;DHT22;33304;52.456;13.328;2023-09-30T08:13:13;15.50;26.40
47576;DHT22;33304;52.456;13.328;2023-09-30T08:15:41;15.60;25.90
47576;DHT22;33304;52.456;13.328;2023-09-30T08:18:09;15.60;24.50
47576;DHT22;33304;52.456;13.328;2023-09-30T08:20:37;15.60;25.90
47576;DHT22;33304;52.456;13.328;2023-09-30T08:23:04;15.70;26.00
47576;DHT22;33304;52.456;13.328;2023-09-30T08:25:31;15.70;23.90
47576;DHT22;33304;52.456;13.328;2023-09-30T08:27:58;15.80;24.00
47576;DHT22;33304;52.456;13.328;2023-09-30T08:30:26;15.90;23.50
47576;DHT22;33304;52.456;13.328;2023-09-30T08:32:54;15.90;22.50
47576;DHT22;33304;52.456;13.328;2023-09-30T08:35:22;15.90;22.90
47576;DHT22;33304;52.456;13.328;2023-09-30T08:37:49;16.00;21.30
47576;DHT22;33304;52.456;13.328;2023-09-30T08:40:20;16.00;21.90
47576;DHT22;33304;52.456;13.328;2023-09-30T08:42:49;16.30;22.20
47576;DHT22;33304;52.456;13.328;2023-09-30T08:45:18;16.30;20.70
47576;DHT22;33304;52.456;13.328;2023-09-30T08:47:46;16.30;20.40
47576;DHT22;33304;52.456;13.328;2023-09-30T08:50:14;16.50;20.30
47576;DHT22;33304;52.456;13.328;2023-09-30T08:52:44;16.40;19.80
47576;DHT22;33304;52.456;13.328;2023-09-30T08:55:11;16.40;19.60
47576;DHT22;33304;52.456;13.328;2023-09-30T08:57:41;16.30;19.70
47576;DHT22;33304;52.456;13.328;2023-09-30T09:00:10;16.30;20.90
47576;DHT22;33304;52.456;13.328;2023-09-30T09:02:38;16.20;20.20
47576;DHT22;33304;52.456;13.328;2023-09-30T09:05:06;16.30;19.70
47576;DHT22;33304;52.456;13.328;2023-09-30T09:07:35;16.40;18.70
47576;DHT22;33304;52.456;13.328;2023-09-30T09:10:05;16.60;20.60
47576;DHT22;33304;52.456;13.328;2023-09-30T09:12:33;16.60;17.80
47576;DHT22;33304;52.456;13.328;2023-09-30T09:15:00;16.70;18.20
47576;DHT22;33304;52.456;13.328;2023-09-30T09:17:40;16.90;17.80
47576;DHT22;33304;52.456;13.328;2023-09-30T09:20:09;17.00;17.30
47576;DHT22;33304;52.456;13.328;2023-09-30T09:22:40;17.10;17.40
47576;DHT22;33304;52.456;13.328;2023-09-30T09:25:09;17.20;16.60
47576;DHT22;33304;52.456;13.328;2023-09-30T09:27:37;17.30;15.20
47576;DHT22;33304;52.456;13.328;2023-09-30T09:30:15;17.40;16.60
47576;DHT22;33304;52.456;13.328;2023-09-30T09:32:53;17.50;15.90
47576;DHT22;33304;52.456;13.328;2023-09-30T09:35:21;17.50;14.80
47576;DHT22;33304;52.456;13.328;2023-09-30T09:37:55;17.50;13.00
47576;DHT22;33304;52.456;13.328;2023-09-30T09:40:26;17.50;13.50
47576;DHT22;33304;52.456;13.328;2023-09-30T09:42:53;17.70;12.80
47576;DHT22;33304;52.456;13.328;2023-09-30T09:45:23;17.90;12.60
47576;DHT22;33304;52.456;13.328;2023-09-30T09:47:51;18.10;11.90
47576;DHT22;33304;52.456;13.328;2023-09-30T09:50:19;18.00;10.80
47576;DHT22;33304;52.456;13.328;2023-09-30T09:52:48;18.10;11.10
47576;DHT22;33304;52.456;13.328;2023-09-30T09:55:17;18.20;10.50
47576;DHT22;33304;52.456;13.328;2023-09-30T09:57:46;18.40;10.40
47576;DHT22;33304;52.456;13.328;2023-09-30T10:00:15;18.50;8.30
47576;DHT22;33304;52.456;13.328;2023-09-30T10:02:44;18.60;8.40
47576;DHT22;33304;52.456;13.328;2023-09-30T10:05:12;18.80;9.90
47576;DHT22;33304;52.456;13.328;2023-09-30T10:07:44;18.80;7.70
47576;DHT22;33304;52.456;13.328;2023-09-30T10:10:14;18.60;8.40
47576;DHT22;33304;52.456;13.328;2023-09-30T10:12:42;18.80;6.80
47576;DHT22;33304;52.456;13.328;2023-09-30T10:15:39;18.80;7.10
47576;DHT22;33304;52.456;13.328;2023-09-30T10:18:09;18.70;5.20
47576;DHT22;33304;52.456;13.328;2023-09-30T10:20:38;18.70;5.00
47576;DHT22;33304;52.456;13.328;2023-09-30T10:23:23;18.70;4.90
47576;DHT22;33304;52.456;13.328;2023-09-30T10:26:13;18.90;5.80
47576;DHT22;33304;52.456;13.328;2023-09-30T10:28:44;19.20;4.00
47576;DHT22;33304;52.456;13.328;2023-09-30T10:31:17;19.40;4.00
47576;DHT22;33304;52.456;13.328;2023-09-30T10:34:20;19.40;2.90
47576;DHT22;33304;52.456;13.328;2023-09-30T10:36:48;19.30;3.20
47576;DHT22;33304;52.456;13.328;2023-09-30T10:42:47;19.30;2.00
47576;DHT22;33304;52.456;13.328;2023-09-30T10:45:45;19.20;2.50
47576;DHT22;33304;52.456;13.328;2023-09-30T10:48:35;19.10;2.20
47576;DHT22;33304;52.456;13.328;2023-09-30T10:51:14;19.10;2.20
47576;DHT22;33304;52.456;13.328;2023-09-30T10:53:46;19.10;2.10
47576;DHT22;33304;52.456;13.328;2023-09-30T10:56:14;19.20;1.20
47576;DHT22;33304;52.456;13.328;2023-09-30T10:58:45;19.40;1.00
47576;DHT22;33304;52.456;13.328;2023-09-30T11:01:14;19.20;1.00
47576;DHT22;33304;52.456;13.328;2023-09-30T11:03:42;19.20;2.40
47576;DHT22;33304;52.456;13.328;2023-09-30T11:06:11;19.20;1.70
47576;DHT22;33304;52.456;13.328;2023-09-30T11:08:50;19.30;1.00
47576;DHT22;33304;52.456;13.328;2023-09-30T11:11:18;19.20;1.00
47576;DHT22;33304;52.456;13.328;2023-09-30T11:13:46;19.30;1.60
47576;DHT22;33304;52.456;13.328;2023-09-30T11:16:13;19.40;1.00
47576;DHT22;33304;52.456;13.328;2023-09-30T11:18:41;19.70;1.00
47576;DHT22;33304;52.456;13.328;2023-09-30T11:21:09;19.80;1.00
47576;DHT22;33304;52.456;13.328;2023-09-30T11:23:39;19.60;1.00
47576;DHT22;33304;52.456;13.328;2023-09-30T11:26:07;19.70;1.00
47576;DHT22;33304;52.456;13.328;2023-09-30T11:28:37;19.70;1.00
47576;DHT22;33304;52.456;13.328;2023-09-30T11:31:08;20.00;1.00
47576;DHT22;33304;52.456;13.328;2023-09-30T11:33:52;20.00;1.00
47576;DHT22;33304;52.456;13.328;2023-09-30T11:36:20;19.90;1.00
47576;DHT22;33304;52.456;13.328;2023-09-30T11:38:48;19.70;1.00
47576;DHT22;33304;52.456;13.328;2023-09-30T11:41:16;19.60;1.00
47576;DHT22;33304;52.456;13.328;2023-09-30T11:44:01;19.60;1.00
47576;DHT22;33304;52.456;13.328;2023-09-30T11:46:32;19.70;1.80
47576;DHT22;33304;52.456;13.328;2023-09-30T11:49:01;19.90;1.00
47576;DHT22;33304;52.456;13.328;2023-09-30T11:51:29;20.20;1.00
47576;DHT22;33304;52.456;13.328;2023-09-30T11:53:57;20.20;1.00
47576;DHT22;33304;52.456;13.328;2023-09-30T11:56:24;20.30;1.00
47576;DHT22;33304;52.456;13.328;2023-09-30T11:58:56;20.60;1.00
47576;DHT22;33304;52.456;13.328;2023-09-30T12:01:23;20.40;1.00
47576;DHT22;33304;52.456;13.328;2023-09-30T12:03:52;20.10;1.00
47576;DHT22;33304;52.456;13.328;2023-09-30T12:06:22;19.90;1.00
47576;DHT22;33304;52.456;13.328;2023-09-30T12:08:50;20.00;1.00
47576;DHT22;33304;52.456;13.328;2023-09-30T12:11:18;20.10;1.00
47576;DHT22;33304;52.456;13.328;2023-09-30T12:13:45;20.30;1.00
47576;DHT22;33304;52.456;13.328;2023-09-30T12:16:14;20.50;1.00
47576;DHT22;33304;52.456;13.328;2023-09-30T12:18:42;20.50;1.00
47576;DHT22;33304;52.456;13.328;2023-09-30T12:21:11;20.70;1.00
47576;DHT22;33304;52.456;13.328;2023-09-30T12:23:39;20.90;1.00
47576;DHT22;33304;52.456;13.328;2023-09-30T12:26:07;21.10;1.00
47576;DHT22;33304;52.456;13.328;2023-09-30T12:28:34;21.00;1.00
47576;DHT22;33304;52.456;13.328;2023-09-30T12:31:01;20.80;1.00
47576;DHT22;33304;52.456;13.328;2023-09-30T12:33:29;20.60;1.00
47576;DHT22;33304;52.456;13.328;2023-09-30T12:35:57;20.70;1.00
47576;DHT22;33304;52.456;13.328;2023-09-30T12:38:25;20.60;1.00
47576;DHT22;33304;52.456;13.328;2023-09-30T12:40:53;20.80;1.00
47576;DHT22;33304;52.456;13.328;2023-09-30T12:43:20;20.90;1.00
47576;DHT22;33304;52.456;13.328;2023-09-30T12:45:48;20.80;1.00
47576;DHT22;33304;52.456;13.328;2023-09-30T12:48:15;20.80;1.00
47576;DHT22;33304;52.456;13.328;2023-09-30T12:50:43;20.80;1.00
47576;DHT22;33304;52.456;13.328;2023-09-30T12:53:10;20.90;1.00
47576;DHT22;33304;52.456;13.328;2023-09-30T12:55:38;20.70;1.00
47576;DHT22;33304;52.456;13.328;2023-09-30T12:58:06;20.80;1.00
47576;DHT22;33304;52.456;13.328;2023-09-30T13:00:34;20.90;1.00
47576;DHT22;33304;52.456;13.328;2023-09-30T13:03:03;21.50;1.00
47576;DHT22;33304;52.456;13.328;2023-09-30T13:05:30;21.90;1.00
47576;DHT22;33304;52.456;13.328;2023-09-30T13:07:57;22.40;1.00
47576;DHT22;33304;52.456;13.328;2023-09-30T13:10:24;22.40;1.00
47576;DHT22;33304;52.456;13.328;2023-09-30T13:12:53;21.80;1.00
47576;DHT22;33304;52.456;13.328;2023-09-30T13:15:21;21.70;1.00
47576;DHT22;33304;52.456;13.328;2023-09-30T13:17:50;21.50;1.00
47576;DHT22;33304;52.456;13.328;2023-09-30T13:20:17;21.50;1.00
47576;DHT22;33304;52.456;13.328;2023-09-30T13:22:44;21.80;1.00
47576;DHT22;33304;52.456;13.328;2023-09-30T13:25:12;21.60;1.00
47576;DHT22;33304;52.456;13.328;2023-09-30T13:27:39;21.30;1.00
47576;DHT22;33304;52.456;13.328;2023-09-30T13:30:08;21.10;1.00
47576;DHT22;33304;52.456;13.328;2023-09-30T13:32:36;21.00;1.00
47576;DHT22;33304;52.456;13.328;2023-09-30T13:35:03;20.60;1.00
47576;DHT22;33304;52.456;13.328;2023-09-30T13:37:31;20.70;1.00
47576;DHT22;33304;52.456;13.328;2023-09-30T13:39:59;20.80;1.00
47576;DHT22;33304;52.456;13.328;2023-09-30T13:42:27;20.80;1.00
47576;DHT22;33304;52.456;13.328;2023-09-30T13:44:54;21.10;1.00
47576;DHT22;33304;52.456;13.328;2023-09-30T13:47:25;21.10;1.00
47576;DHT22;33304;52.456;13.328;2023-09-30T13:49:52;21.00;1.00
47576;DHT22;33304;52.456;13.328;2023-09-30T13:52:19;20.70;1.00
47576;DHT22;33304;52.456;13.328;2023-09-30T13:54:46;20.80;1.00
47576;DHT22;33304;52.456;13.328;2023-09-30T13:57:13;20.90;1.00
47576;DHT22;33304;52.456;13.328;2023-09-30T13:59:41;21.20;1.00
47576;DHT22;33304;52.456;13.328;2023-09-30T14:02:08;21.50;1.00
47576;DHT22;33304;52.456;13.328;2023-09-30T14:04:37;21.50;1.00
47576;DHT22;33304;52.456;13.328;2023-09-30T14:07:04;21.80;1.00
47576;DHT22;33304;52.456;13.328;2023-09-30T14:09:34;22.20;1.00
47576;DHT22;33304;52.456;13.328;2023-09-30T14:12:01;22.30;1.00
47576;DHT22;33304;52.456;13.328;2023-09-30T14:14:31;22.50;1.00
47576;DHT22;33304;52.456;13.328;2023-09-30T14:16:58;22.30;1.00
47576;DHT22;33304;52.456;13.328;2023-09-30T14:19:26;22.50;1.00
47576;DHT22;33304;52.456;13.328;2023-09-30T14:21:56;22.60;1.00
47576;DHT22;33304;52.456;13.328;2023-09-30T14:24:24;22.70;1.00
47576;DHT22;33304;52.456;13.328;2023-09-30T14:26:51;22.80;1.00
47576;DHT22;33304;52.456;13.328;2023-09-30T14:29:18;23.40;1.00
47576;DHT22;33304;52.456;13.328;2023-09-30T14:31:45;23.70;1.00
47576;DHT22;33304;52.456;13.328;2023-09-30T14:34:12;24.00;1.00
47576;DHT22;33304;52.456;13.328;2023-09-30T14:36:41;23.70;1.00
47576;DHT22;33304;52.456;13.328;2023-09-30T14:39:10;23.50;1.00
47576;DHT22;33304;52.456;13.328;2023-09-30T14:41:37;23.20;1.00
47576;DHT22;33304;52.456;13.328;2023-09-30T14:44:04;23.30;1.00
47576;DHT22;33304;52.456;13.328;2023-09-30T14:46:34;23.20;1.00
47576;DHT22;33304;52.456;13.328;2023-09-30T14:49:01;23.30;1.00
47576;DHT22;33304;52.456;13.328;2023-09-30T14:51:28;23.10;1.00
47576;DHT22;33304;52.456;13.328;2023-09-30T14:53:55;23.20;1.00
47576;DHT22;33304;52.456;13.328;2023-09-30T14:56:23;22.80;1.00
47576;DHT22;33304;52.456;13.328;2023-09-30T14:58:50;23.10;1.00
47576;DHT22;33304;52.456;13.328;2023-09-30T15:01:17;23.20;1.00
47576;DHT22;33304;52.456;13.328;2023-09-30T15:03:46;22.80;1.00
47576;DHT22;33304;52.456;13.328;2023-09-30T15:06:14;22.80;1.00
47576;DHT22;33304;52.456;13.328;2023-09-30T15:08:41;22.90;1.00
47576;DHT22;33304;52.456;13.328;2023-09-30T15:11:12;23.20;1.00
47576;DHT22;33304;52.456;13.328;2023-09-30T15:13:42;23.00;1.00
47576;DHT22;33304;52.456;13.328;2023-09-30T15:16:16;22.80;1.00
47576;DHT22;33304;52.456;13.328;2023-09-30T15:18:43;22.40;1.00
47576;DHT22;33304;52.456;13.328;2023-09-30T15:21:11;21.80;1.00
47576;DHT22;33304;52.456;13.328;2023-09-30T15:23:38;21.70;1.00
47576;DHT22;33304;52.456;13.328;2023-09-30T15:26:05;21.50;1.00
47576;DHT22;33304;52.456;13.328;2023-09-30T15:28:32;21.40;1.00
47576;DHT22;33304;52.456;13.328;2023-09-30T15:31:01;21.20;1.00
47576;DHT22;33304;52.456;13.328;2023-09-30T15:33:28;20.80;1.00
47576;DHT22;33304;52.456;13.328;2023-09-30T15:35:56;20.60;1.00